Time;durP1;ratioP1;P1;durP2;ratioP2;P2;SDS_P1;SDS_P2;PMS_P1;PMS_P2;Temp;Humidity;BMP_temperature;BMP_pressure;BME280_temperature;BME280_humidity;BME280_pressure;Samples;Min_cycle;Max_cycle;Signal;HPM_P1;HPM_P2
2023/01/23 00:01:49;;;;;;;42.42;24.70;;;-0.80;99.90;;;;;;6227006;23;20020;-88
2023/01/23 00:04:36;;;;;;;41.92;23.95;;;-0.80;99.90;;;;;;6226829;23;20020;-89
2023/01/23 00:07:24;;;;;;;43.72;24.23;;;-0.80;99.90;;;;;;6251215;23;20024;-89
2023/01/23 00:10:12;;;;;;;42.63;24.95;;;-0.90;99.90;;;;;;6253820;23;20035;-89
2023/01/23 00:12:59;;;;;;;46.15;24.90;;;-0.80;99.90;;;;;;6226316;23;20020;-90
2023/01/23 00:15:50;;;;;;;45.28;24.35;;;-0.90;99.90;;;;;;6226955;23;20046;-89
2023/01/23 00:18:38;;;;;;;45.92;24.85;;;-0.80;99.90;;;;;;6225417;23;20027;-89
2023/01/23 00:21:29;;;;;;;46.20;25.15;;;-0.90;99.90;;;;;;6225032;23;20138;-88
2023/01/23 00:24:16;;;;;;;44.20;24.45;;;-0.90;99.90;;;;;;6224632;23;20478;-87
2023/01/23 00:27:03;;;;;;;49.13;25.50;;;-0.90;99.90;;;;;;6249474;23;20117;-89
2023/01/23 00:29:55;;;;;;;47.80;26.20;;;-0.90;99.90;;;;;;6227186;23;20023;-88
2023/01/23 00:32:45;;;;;;;44.05;25.02;;;-1.00;99.90;;;;;;6223817;23;20032;-89
2023/01/23 00:35:34;;;;;;;45.67;24.80;;;-1.00;99.90;;;;;;6225982;23;20296;-88
2023/01/23 00:38:21;;;;;;;43.17;24.65;;;-1.10;99.90;;;;;;6246000;23;20032;-87
2023/01/23 00:41:08;;;;;;;42.95;23.85;;;-1.10;99.90;;;;;;6225188;23;20028;-89
2023/01/23 00:43:57;;;;;;;44.38;24.02;;;-1.20;99.90;;;;;;6226342;23;20782;-88
2023/01/23 00:46:44;;;;;;;43.67;24.48;;;-1.30;99.90;;;;;;6225606;23;20443;-89
2023/01/23 00:49:34;;;;;;;44.55;23.80;;;-1.30;99.90;;;;;;6246654;23;20336;-88
2023/01/23 00:52:22;;;;;;;44.60;22.92;;;-1.30;99.90;;;;;;6224840;23;20054;-89
2023/01/23 00:55:09;;;;;;;44.25;23.73;;;-1.30;99.90;;;;;;6226016;23;20043;-88
2023/01/23 00:57:58;;;;;;;43.78;24.50;;;-1.30;99.90;;;;;;6246465;23;20428;-88
2023/01/23 01:00:48;;;;;;;45.17;23.25;;;-1.20;99.90;;;;;;6226155;23;20032;-89
2023/01/23 01:03:35;;;;;;;48.05;25.80;;;-1.20;99.90;;;;;;6224852;23;20039;-88
2023/01/23 01:06:23;;;;;;;43.25;23.10;;;-1.20;99.90;;;;;;6226244;23;20031;-90
2023/01/23 01:09:10;;;;;;;48.63;26.17;;;-1.20;99.90;;;;;;6225762;23;20020;-90
2023/01/23 01:12:00;;;;;;;45.58;24.73;;;-1.20;99.90;;;;;;6227568;23;20024;-89
2023/01/23 01:14:47;;;;;;;46.28;25.08;;;-1.20;99.90;;;;;;6225085;23;20312;-88
2023/01/23 01:17:37;;;;;;;52.03;27.27;;;-1.20;99.90;;;;;;6246625;23;20024;-89
2023/01/23 01:20:26;;;;;;;46.33;25.20;;;-1.20;99.90;;;;;;6247616;23;20071;-88
2023/01/23 01:23:14;;;;;;;49.42;26.55;;;-1.10;99.90;;;;;;6247377;23;20028;-90
2023/01/23 01:26:02;;;;;;;52.00;26.52;;;-1.10;99.90;;;;;;6224812;23;20024;-88
2023/01/23 01:28:52;;;;;;;50.03;25.30;;;-1.10;99.90;;;;;;6247631;23;20303;-89
2023/01/23 01:31:42;;;;;;;46.88;26.13;;;-1.20;99.90;;;;;;6228348;23;20036;-89
2023/01/23 01:34:29;;;;;;;51.35;26.52;;;-1.20;99.90;;;;;;6225800;23;20055;-88
2023/01/23 01:37:17;;;;;;;53.20;27.25;;;-1.10;99.90;;;;;;6207310;23;20028;-89
2023/01/23 01:40:06;;;;;;;52.72;27.40;;;-1.10;99.90;;;;;;6247420;23;20024;-87
2023/01/23 01:42:58;;;;;;;49.08;26.65;;;-1.10;99.90;;;;;;6251669;22;20024;-87
2023/01/23 01:46:21;;;;;;;56.70;28.27;;;-1.10;99.90;;;;;;6229749;23;20024;-86
2023/01/23 01:49:19;;;;;;;49.05;27.27;;;-1.10;99.90;;;;;;6231178;23;20107;-87
2023/01/23 01:52:09;;;;;;;53.80;26.85;;;-1.10;99.90;;;;;;6250364;23;20023;-88
2023/01/23 01:55:06;;;;;;;51.05;27.10;;;-1.10;99.90;;;;;;6229216;23;20032;-87
2023/01/23 01:57:53;;;;;;;51.85;25.80;;;-1.00;99.90;;;;;;6229924;23;20031;-87
2023/01/23 02:00:41;;;;;;;52.85;27.42;;;-1.10;99.90;;;;;;6228824;23;20652;-87
2023/01/23 02:03:29;;;;;;;52.55;27.38;;;-1.10;99.90;;;;;;6251663;23;20043;-87
2023/01/23 02:06:20;;;;;;;46.60;25.55;;;-1.00;99.90;;;;;;6228029;23;20020;-87
2023/01/23 02:09:20;;;;;;;52.40;27.17;;;-1.00;99.90;;;;;;6258055;23;20028;-87
2023/01/23 02:12:08;;;;;;;49.28;26.30;;;-1.00;99.90;;;;;;6241956;23;20084;-88
2023/01/23 02:14:55;;;;;;;50.92;26.42;;;-1.00;99.90;;;;;;6266593;23;20050;-89
2023/01/23 02:17:44;;;;;;;50.55;26.63;;;-1.00;99.90;;;;;;6242087;23;20047;-88
2023/01/23 02:20:31;;;;;;;55.30;26.65;;;-1.00;99.90;;;;;;6270409;22;20039;-86
2023/01/23 02:23:53;;;;;;;50.00;27.13;;;-1.00;99.90;;;;;;6274860;22;21412;-87
2023/01/23 02:26:43;;;;;;;48.17;27.23;;;-1.00;99.90;;;;;;6270236;22;20024;-89
2023/01/23 02:29:44;;;;;;;51.33;25.88;;;-1.00;99.90;;;;;;6242140;22;20103;-86
2023/01/23 02:32:31;;;;;;;48.78;26.05;;;-1.00;99.90;;;;;;6254652;22;20697;-87
2023/01/23 02:35:32;;;;;;;50.85;26.83;;;-1.00;99.90;;;;;;6279527;22;20074;-88
2023/01/23 02:38:25;;;;;;;47.72;25.83;;;-1.00;99.90;;;;;;6255609;22;20031;-87
2023/01/23 02:41:19;;;;;;;51.35;26.40;;;-1.00;99.90;;;;;;6277080;22;20042;-87
2023/01/23 02:44:14;;;;;;;56.80;28.58;;;-1.00;99.90;;;;;;6255371;22;20327;-88
2023/01/23 02:47:11;;;;;;;50.30;26.33;;;-1.00;99.90;;;;;;6258054;22;20094;-88
2023/01/23 02:50:01;;;;;;;51.85;28.27;;;-1.00;99.90;;;;;;6256778;22;20038;-88
2023/01/23 02:52:53;;;;;;;53.47;27.48;;;-1.00;99.90;;;;;;6254386;22;20031;-89
2023/01/23 02:55:43;;;;;;;52.58;27.92;;;-1.00;99.90;;;;;;6279793;22;20023;-88
2023/01/23 03:01:36;;;;;;;53.40;27.40;;;-1.00;99.90;;;;;;6283041;22;20149;-88
2023/01/23 03:04:25;;;;;;;54.95;26.27;;;-1.00;99.90;;;;;;6254460;22;20110;-87
2023/01/23 03:07:12;;;;;;;53.85;27.33;;;-1.00;99.90;;;;;;6254429;22;20035;-87
2023/01/23 03:10:00;;;;;;;55.33;27.73;;;-1.10;99.90;;;;;;6276106;22;20081;-87
2023/01/23 03:12:47;;;;;;;53.28;28.15;;;-1.00;99.90;;;;;;6276462;22;20505;-87
2023/01/23 03:15:37;;;;;;;50.35;26.27;;;-1.10;99.90;;;;;;6276441;22;20027;-87
2023/01/23 03:18:29;;;;;;;53.80;27.95;;;-1.10;99.90;;;;;;6255570;22;20493;-88
2023/01/23 03:21:16;;;;;;;54.65;27.30;;;-1.00;99.90;;;;;;6257221;22;20130;-89
2023/01/23 03:24:05;;;;;;;53.28;27.42;;;-1.00;99.90;;;;;;6190426;23;1220077;-88
2023/01/23 03:26:52;;;;;;;52.13;26.77;;;-1.10;99.90;;;;;;6247962;22;20058;-86
2023/01/23 03:32:48;;;;;;;60.10;29.17;;;-1.00;99.90;;;;;;6277700;22;20023;-88
2023/01/23 03:35:51;;;;;;;54.85;28.30;;;-1.00;99.90;;;;;;6258420;22;20028;-86
2023/01/23 03:41:23;;;;;;;53.88;27.48;;;-1.00;99.90;;;;;;6279726;22;20098;-86
2023/01/23 03:41:47;;;;;;;56.03;29.27;;;-1.00;99.90;;;;;;6279900;22;20138;-90
2023/01/23 03:44:34;;;;;;;60.67;29.30;;;-1.00;99.90;;;;;;6279460;22;20027;-89
2023/01/23 03:47:21;;;;;;;60.08;29.38;;;-1.00;99.90;;;;;;6279691;22;20091;-89
2023/01/23 03:50:09;;;;;;;55.42;28.73;;;-1.00;99.90;;;;;;6287477;22;20024;-88
2023/01/23 03:52:57;;;;;;;61.00;29.50;;;-1.00;99.90;;;;;;6299366;22;20019;-88
2023/01/23 03:55:46;;;;;;;56.55;28.85;;;-1.00;99.90;;;;;;6300301;22;20027;-89
2023/01/23 03:58:36;;;;;;;60.25;29.48;;;-1.00;99.90;;;;;;6276030;22;20024;-87
2023/01/23 04:01:23;;;;;;;59.90;29.73;;;-1.00;99.90;;;;;;6266591;22;20438;-88
2023/01/23 04:04:11;;;;;;;56.25;29.27;;;-1.00;99.90;;;;;;6257662;22;20024;-88
2023/01/23 04:07:03;;;;;;;55.47;29.45;;;-1.00;99.90;;;;;;6260242;22;20034;-85
2023/01/23 04:09:52;;;;;;;61.97;29.92;;;-1.00;99.90;;;;;;6255233;22;20352;-87
2023/01/23 04:12:42;;;;;;;58.22;29.42;;;-1.00;99.90;;;;;;6257641;22;20020;-87
2023/01/23 04:15:35;;;;;;;59.90;29.60;;;-1.00;99.90;;;;;;6278326;22;20027;-88
2023/01/23 04:18:22;;;;;;;58.53;28.70;;;-1.00;99.90;;;;;;6279580;22;20024;-88
2023/01/23 04:21:10;;;;;;;58.50;29.30;;;-1.00;99.90;;;;;;6257871;22;20027;-89
2023/01/23 04:23:58;;;;;;;59.00;30.08;;;-1.00;99.90;;;;;;6282154;22;20731;-88
2023/01/23 04:26:45;;;;;;;61.25;29.23;;;-1.00;99.90;;;;;;6260688;22;20423;-87
2023/01/23 04:29:32;;;;;;;57.40;28.48;;;-1.00;99.90;;;;;;6281126;22;20034;-88
2023/01/23 04:32:21;;;;;;;59.72;30.00;;;-1.00;99.90;;;;;;6256794;22;20094;-87
2023/01/23 04:35:08;;;;;;;55.33;27.25;;;-1.00;99.90;;;;;;6255553;22;20426;-87
2023/01/23 04:38:02;;;;;;;60.28;28.73;;;-1.00;99.90;;;;;;6257631;22;20029;-88
2023/01/23 04:40:50;;;;;;;55.83;28.45;;;-1.00;99.90;;;;;;6258590;22;20398;-88
2023/01/23 04:43:37;;;;;;;58.53;29.02;;;-1.00;99.90;;;;;;6275882;22;20023;-89
2023/01/23 04:46:24;;;;;;;64.40;30.30;;;-1.00;99.90;;;;;;6255693;22;20023;-88
2023/01/23 04:49:12;;;;;;;62.60;29.08;;;-1.00;99.90;;;;;;6255735;22;20327;-87
2023/01/23 04:52:01;;;;;;;59.25;28.48;;;-1.00;99.90;;;;;;6277522;22;20024;-86
2023/01/23 04:54:48;;;;;;;64.85;30.77;;;-1.00;99.90;;;;;;6255322;22;20023;-87
2023/01/23 04:57:37;;;;;;;58.30;28.33;;;-1.00;99.90;;;;;;6258600;22;20031;-88
2023/01/23 05:00:27;;;;;;;67.60;30.15;;;-1.00;99.90;;;;;;6279186;22;20028;-87
2023/01/23 05:03:19;;;;;;;68.10;32.28;;;-1.00;99.90;;;;;;6277625;22;20089;-86
2023/01/23 05:06:22;;;;;;;65.25;31.73;;;-1.00;99.90;;;;;;6262247;22;20019;-88
2023/01/23 05:09:26;;;;;;;64.55;30.80;;;-1.00;99.90;;;;;;6259783;22;20035;-87
2023/01/23 05:12:13;;;;;;;69.70;32.13;;;-1.00;99.90;;;;;;6260150;22;20023;-87
2023/01/23 05:15:00;;;;;;;61.28;30.25;;;-1.00;99.90;;;;;;6270762;22;20027;-88
2023/01/23 05:17:48;;;;;;;64.30;30.50;;;-1.00;99.90;;;;;;6275635;22;20107;-88
2023/01/23 05:20:35;;;;;;;64.93;30.55;;;-1.00;99.90;;;;;;6290332;22;20039;-89
2023/01/23 05:23:22;;;;;;;66.95;30.17;;;-1.00;99.90;;;;;;6258742;22;20023;-88
2023/01/23 05:26:10;;;;;;;65.25;30.67;;;-1.00;99.90;;;;;;6258881;22;20103;-88
2023/01/23 05:28:59;;;;;;;66.63;31.42;;;-1.00;99.90;;;;;;6256353;22;20042;-88
2023/01/23 05:31:47;;;;;;;69.68;31.90;;;-1.00;99.90;;;;;;6257733;22;20024;-88
2023/01/23 05:34:34;;;;;;;71.10;32.15;;;-1.00;99.90;;;;;;6239769;22;20086;-87
2023/01/23 05:37:26;;;;;;;70.78;32.50;;;-1.00;99.90;;;;;;6281603;22;20102;-87
2023/01/23 05:40:18;;;;;;;70.45;32.83;;;-1.00;99.90;;;;;;6283398;22;20037;-87
2023/01/23 05:43:06;;;;;;;69.47;31.88;;;-0.90;99.90;;;;;;6280647;22;20024;-89
2023/01/23 05:45:53;;;;;;;69.78;31.95;;;-0.90;99.90;;;;;;6280350;22;20027;-88
2023/01/23 05:48:41;;;;;;;64.68;31.02;;;-0.90;99.90;;;;;;6278841;22;20311;-87
2023/01/23 05:51:31;;;;;;;67.63;31.58;;;-0.90;99.90;;;;;;6278362;22;20114;-86
2023/01/23 05:54:21;;;;;;;67.25;30.65;;;-0.90;99.90;;;;;;6256016;22;20099;-88
2023/01/23 05:57:09;;;;;;;65.07;29.98;;;-1.00;99.90;;;;;;6258704;22;20038;-87
2023/01/23 05:59:56;;;;;;;64.15;29.50;;;-0.90;99.90;;;;;;6279823;22;20081;-89
2023/01/23 06:02:46;;;;;;;63.47;30.33;;;-0.90;99.90;;;;;;6279266;22;20736;-85
2023/01/23 06:05:33;;;;;;;65.82;30.40;;;-1.00;99.90;;;;;;6257362;22;20391;-85
2023/01/23 06:08:20;;;;;;;63.17;28.83;;;-0.90;99.90;;;;;;6259000;22;20023;-85
2023/01/23 06:11:09;;;;;;;63.80;28.55;;;-0.90;99.90;;;;;;6288134;22;20093;-84
2023/01/23 06:13:57;;;;;;;60.60;28.52;;;-0.90;99.90;;;;;;6261836;22;20466;-84
2023/01/23 06:16:45;;;;;;;63.90;29.67;;;-0.90;99.90;;;;;;6280221;22;20032;-84
2023/01/23 06:19:35;;;;;;;66.07;29.52;;;-0.90;99.90;;;;;;6255203;22;20105;-85
2023/01/23 06:22:28;;;;;;;68.75;30.17;;;-0.90;99.90;;;;;;6279639;22;20027;-85
2023/01/23 06:25:19;;;;;;;63.35;29.10;;;-0.90;99.90;;;;;;6277907;22;20283;-85
2023/01/23 06:28:15;;;;;;;67.35;30.55;;;-0.90;99.90;;;;;;6257313;22;20019;-86
2023/01/23 06:31:08;;;;;;;61.05;28.25;;;-0.90;99.90;;;;;;6269074;22;20312;-87
2023/01/23 12:27:43;;;;;;;37.42;17.52;;;0.80;99.90;;;;;;6257118;22;20031;-86
2023/01/23 12:31:05;;;;;;;32.40;17.83;;;1.00;99.90;;;;;;6258353;22;20042;-88
2023/01/23 12:34:26;;;;;;;32.95;18.67;;;1.10;99.90;;;;;;6255118;22;20102;-88
2023/01/23 12:37:34;;;;;;;31.52;17.05;;;1.20;99.90;;;;;;6277752;22;20036;-88
2023/01/23 12:44:47;;;;;;;32.00;17.10;;;1.30;99.90;;;;;;6136249;22;20020;-86
2023/01/23 12:47:47;;;;;;;32.17;17.63;;;1.80;99.90;;;;;;6255280;22;20103;-88
2023/01/23 12:51:06;;;;;;;25.58;14.70;;;1.90;42.90;;;;;;6275816;22;20027;-91
2023/01/23 12:53:57;;;;;;;29.58;16.65;;;2.10;1.00;;;;;;6256894;22;20034;-88
2023/01/23 13:06:33;;;;;;;;;;;;;;;;;;;;;
2023/01/23 13:10:18;;;;;;;30.55;17.48;;;2.20;99.90;;;;;;6275912;22;20318;-90
2023/01/23 16:01:02;;;;;;;36.78;20.48;;;0.70;99.90;;;;;;6233926;22;20031;-86
2023/01/23 16:04:03;;;;;;;36.50;20.42;;;0.70;99.90;;;;;;6250317;23;20024;-92
2023/01/23 16:10:54;;;;;;;35.00;19.23;;;0.70;1.00;;;;;;6250647;23;20424;-90
2023/01/23 16:13:43;;;;;;;40.55;19.80;;;0.60;1.00;;;;;;6228441;23;20028;-90
2023/01/23 16:16:41;;;;;;;37.55;20.98;;;0.60;17.80;;;;;;6248932;23;20051;-90
2023/01/23 16:19:40;;;;;;;39.88;21.30;;;0.60;99.90;;;;;;6247813;23;20039;-89
2023/01/23 16:22:39;;;;;;;44.97;21.27;;;0.60;99.90;;;;;;6227425;23;20038;-91
2023/01/23 16:25:34;;;;;;;39.70;21.30;;;0.60;99.90;;;;;;6224261;23;20024;-90
2023/01/23 16:28:36;;;;;;;40.58;20.40;;;0.60;99.90;;;;;;6231334;23;20024;-91
2023/01/23 16:31:27;;;;;;;37.70;20.25;;;0.50;1.00;;;;;;6227978;23;20028;-90
2023/01/23 16:34:18;;;;;;;37.03;20.73;;;0.60;42.40;;;;;;6224693;23;20513;-92
2023/01/23 16:37:15;;;;;;;37.75;20.27;;;0.60;99.90;;;;;;6250560;23;20027;-89
2023/01/23 16:40:05;;;;;;;39.20;20.40;;;0.50;99.90;;;;;;6252043;23;20034;-93
2023/01/23 16:43:07;;;;;;;40.08;21.08;;;0.60;99.90;;;;;;6229945;23;20059;-93
2023/01/23 16:46:03;;;;;;;37.80;21.17;;;0.50;99.90;;;;;;6229711;23;20187;-92
2023/01/23 16:48:53;;;;;;;41.30;21.58;;;0.50;1.00;;;;;;6237486;23;20028;-90
2023/01/23 16:52:03;;;;;;;42.47;21.95;;;0.50;1.00;;;;;;6259523;23;20047;-89
2023/01/23 16:55:41;;;;;;;37.97;20.70;;;0.50;1.00;;;;;;6253828;23;20039;-89
2023/01/23 16:59:14;;;;;;;37.85;22.27;;;0.50;19.20;;;;;;6247741;23;20115;-90
2023/01/23 17:02:51;;;;;;;39.00;21.48;;;0.50;99.90;;;;;;6268217;23;20058;-88
2023/01/23 17:06:15;;;;;;;;;;;;;;;;;;;;;
2023/01/23 17:09:28;;;;;;;40.25;21.92;;;0.50;99.90;;;;;;6266393;22;20078;-92
2023/01/23 17:12:46;;;;;;;41.30;22.73;;;0.50;99.90;;;;;;6242793;23;20028;-91
2023/01/23 17:15:36;;;;;;;41.60;22.05;;;0.50;99.90;;;;;;6243230;23;20047;-92
2023/01/23 17:18:35;;;;;;;40.42;22.00;;;0.50;99.90;;;;;;6241944;23;20028;-91
2023/01/23 17:21:26;;;;;;;44.50;23.02;;;0.50;99.90;;;;;;6232010;23;20028;-92
2023/01/23 17:24:16;;;;;;;42.85;22.42;;;0.50;1.00;;;;;;6233266;23;20046;-91
2023/01/23 17:27:11;;;;;;;42.95;22.45;;;0.50;1.00;;;;;;6254140;23;20032;-90
2023/01/23 17:30:15;;;;;;;40.33;23.30;;;0.50;1.00;;;;;;6233304;23;20020;-90
2023/01/23 17:33:28;;;;;;;39.43;22.83;;;0.60;1.00;;;;;;6234492;23;20327;-90
2023/01/23 17:36:12;;;;;;;39.40;22.75;;;0.50;1.00;;;;;;6252658;23;20024;-89
2023/01/23 17:39:23;;;;;;;42.47;21.80;;;0.50;1.00;;;;;;6228552;23;20035;-90
2023/01/23 17:42:53;;;;;;;;;;;;;;;;;;;;;
2023/01/23 17:46:05;;;;;;;44.90;22.00;;;0.60;1.00;;;;;;6249334;23;20028;-91
2023/01/23 17:49:14;;;;;;;39.88;22.05;;;0.50;1.00;;;;;;6249746;23;20028;-90
2023/01/23 17:56:08;;;;;;;41.33;22.38;;;0.60;32.00;;;;;;6249558;23;20024;-92
2023/01/23 17:59:02;;;;;;;46.22;21.95;;;0.60;64.20;;;;;;6249975;23;20028;-91
2023/01/23 18:01:50;;;;;;;38.97;22.67;;;0.60;74.90;;;;;;6228943;23;20035;-91
2023/01/23 18:04:41;;;;;;;44.63;23.85;;;0.60;99.90;;;;;;6231816;23;20692;-90
2023/01/23 18:07:36;;;;;;;41.58;22.40;;;0.60;99.90;;;;;;6225770;23;20016;-90
2023/01/23 18:11:22;;;;;;;;;;;;;;;;;;;;;
2023/01/23 18:14:42;;;;;;;39.42;21.45;;;0.60;1.00;;;;;;6100575;23;20010;-90
2023/01/23 18:18:01;;;;;;;43.65;22.40;;;0.70;40.50;;;;;;6098958;23;20026;-89
2023/01/23 18:20:53;;;;;;;38.55;20.85;;;0.70;1.00;;;;;;6020910;23;20595;-91
2023/01/23 18:24:25;;;;;;;39.38;21.80;;;0.70;1.00;;;;;;6082635;23;20038;-91
2023/01/23 18:27:48;;;;;;;41.05;21.05;;;0.70;1.00;;;;;;6068793;23;20027;-92
2023/01/23 18:31:09;;;;;;;44.67;23.30;;;0.70;31.90;;;;;;6102623;23;20054;-91
2023/01/23 18:34:28;;;;;;;;;;;0.70;99.90;;;;;;6104766;23;20041;-89
2023/01/23 18:38:00;;;;;;;41.63;22.00;;;0.70;23.70;;;;;;6161609;23;19916;-90
2023/01/23 18:41:08;;;;;;;;;;;;;;;;;;;;;
2023/01/23 18:44:21;;;;;;;43.90;22.83;;;0.70;99.90;;;;;;6158696;23;20532;-91
2023/01/23 18:47:36;;;;;;;43.65;23.92;;;0.70;99.90;;;;;;6159991;23;20030;-90
2023/01/23 18:50:25;;;;;;;44.35;22.58;;;0.70;99.90;;;;;;6181870;23;20035;-90
2023/01/23 18:53:43;;;;;;;42.13;24.00;;;0.70;99.90;;;;;;6234800;23;20318;-91
2023/01/23 18:57:21;;;;;;;50.13;24.13;;;0.70;1.00;;;;;;6241412;23;20028;-88
2023/01/23 19:00:22;;;;;;;43.88;23.10;;;0.70;1.00;;;;;;6231274;23;20028;-93
2023/01/23 19:06:48;;;;;;;51.67;24.25;;;0.70;47.00;;;;;;6270803;22;20023;-89
2023/01/23 19:09:45;;;;;;;43.55;23.23;;;0.70;99.90;;;;;;6244535;23;20451;-91
2023/01/23 19:12:59;;;;;;;45.55;24.27;;;0.60;99.90;;;;;;6240049;23;20035;-89
2023/01/23 19:16:11;;;;;;;41.55;23.40;;;0.60;1.00;;;;;;6240656;23;20082;-90
2023/01/23 19:19:19;;;;;;;46.25;24.48;;;0.60;1.00;;;;;;6241464;23;20030;-89
2023/01/23 19:22:16;;;;;;;46.90;23.23;;;0.60;39.90;;;;;;6262783;23;20016;-90
2023/01/23 19:25:16;;;;;;;43.30;22.80;;;0.60;99.90;;;;;;6260281;23;20040;-89
2023/01/23 19:28:30;;;;;;;45.75;24.23;;;0.70;99.90;;;;;;6233584;23;20024;-91
2023/01/23 19:31:23;;;;;;;43.83;23.35;;;0.70;99.90;;;;;;6251998;23;20035;-91
2023/01/23 19:34:42;;;;;;;45.88;24.00;;;0.70;99.90;;;;;;6251643;23;20031;-93
2023/01/23 19:37:59;;;;;;;43.45;23.48;;;0.70;99.90;;;;;;6233266;23;20036;-91
2023/01/23 19:40:51;;;;;;;44.65;22.83;;;0.70;99.90;;;;;;6230429;23;20028;-92
2023/01/23 19:44:01;;;;;;;47.72;24.95;;;0.70;99.90;;;;;;6188758;23;20051;-90
2023/01/23 19:47:36;;;;;;;45.45;23.58;;;0.70;99.90;;;;;;6141612;23;20030;-91
2023/01/23 19:57:37;;;;;;;46.05;24.63;;;0.70;99.90;;;;;;6160848;23;20066;-92
2023/01/23 20:03:50;;;;;;;42.00;23.80;;;0.80;99.90;;;;;;6170464;23;20033;-92
2023/01/23 20:10:31;;;;;;;44.50;24.25;;;0.80;99.90;;;;;;6212994;23;20773;-91
2023/01/23 20:13:26;;;;;;;46.63;25.52;;;0.80;99.90;;;;;;6235754;23;20030;-91
2023/01/23 20:16:20;;;;;;;48.38;26.05;;;0.80;99.90;;;;;;6237032;23;20024;-91
2023/01/23 20:19:14;;;;;;;48.00;25.38;;;0.80;99.90;;;;;;6240261;23;20103;-90
2023/01/23 20:22:32;;;;;;;46.67;25.48;;;0.80;99.90;;;;;;6040993;23;20134;-92
2023/01/23 20:25:41;;;;;;;46.05;25.30;;;0.80;1.00;;;;;;6053933;23;20055;-91
2023/01/23 20:28:37;;;;;;;48.03;25.40;;;0.80;1.00;;;;;;6058893;23;20027;-92
2023/01/23 20:31:38;;;;;;;44.00;23.83;;;0.80;1.00;;;;;;6055471;23;20035;-92
2023/01/23 20:34:26;;;;;;;45.60;26.02;;;0.80;1.00;;;;;;6026736;23;20031;-91
2023/01/23 20:37:23;;;;;;;46.80;25.77;;;0.80;1.00;;;;;;6024772;23;20034;-93
2023/01/23 20:40:32;;;;;;;46.13;24.13;;;0.80;1.00;;;;;;6190015;23;20030;-91
2023/01/23 20:43:23;;;;;;;45.60;26.08;;;0.80;1.00;;;;;;6230360;23;20094;-90
2023/01/23 20:50:12;;;;;;;47.60;26.30;;;0.80;1.00;;;;;;6249326;23;20031;-90
2023/01/23 20:56:13;;;;;;;48.83;26.73;;;0.80;1.00;;;;;;6159407;23;20026;-92
2023/01/23 20:59:25;;;;;;;49.03;26.65;;;0.80;1.00;;;;;;6159663;23;20469;-92
2023/01/23 21:02:23;;;;;;;49.38;25.75;;;0.80;1.00;;;;;;6160387;23;20137;-91
2023/01/23 21:09:41;;;;;;;45.45;25.88;;;0.80;1.00;;;;;;6146574;23;20016;-92
2023/01/23 21:12:47;;;;;;;48.00;25.85;;;0.80;1.00;;;;;;6249734;23;20048;-92
2023/01/23 21:15:43;;;;;;;53.78;27.13;;;0.80;9.70;;;;;;6245657;23;20034;-91
2023/01/23 21:18:47;;;;;;;54.78;27.05;;;0.80;13.80;;;;;;6246798;23;20034;-89
2023/01/23 21:21:54;;;;;;;50.67;27.00;;;0.80;13.30;;;;;;6238700;23;20086;-92
2023/01/23 21:24:45;;;;;;;47.35;26.08;;;0.80;20.10;;;;;;6225074;23;20024;-92
2023/01/23 21:27:35;;;;;;;49.00;27.30;;;0.80;32.80;;;;;;6249800;23;20500;-92
2023/01/23 21:31:28;;;;;;;50.92;26.13;;;0.80;22.50;;;;;;6112086;23;20021;-91
2023/01/23 21:34:19;;;;;;;50.50;26.83;;;0.80;31.00;;;;;;6117413;23;20018;-91
2023/01/23 21:37:17;;;;;;;54.80;27.80;;;0.80;39.70;;;;;;6130296;23;20117;-91
2023/01/23 21:40:17;;;;;;;48.83;26.52;;;0.80;49.20;;;;;;6113794;23;20029;-91
2023/01/23 21:43:04;;;;;;;51.78;28.20;;;0.80;57.40;;;;;;6133875;23;20026;-90
2023/01/23 21:45:52;;;;;;;48.92;27.85;;;0.80;57.40;;;;;;6114935;23;20032;-93
2023/01/23 21:49:04;;;;;;;56.05;28.77;;;0.80;58.80;;;;;;6111316;23;20053;-91
2023/01/23 21:51:51;;;;;;;59.97;29.60;;;0.90;79.30;;;;;;6112915;23;20022;-89
2023/01/23 21:55:15;;;;;;;51.90;27.67;;;0.80;66.20;;;;;;6181226;23;20034;-90
2023/01/23 21:58:01;;;;;;;51.30;27.58;;;0.90;68.20;;;;;;6236408;23;20046;-90
2023/01/23 22:01:34;;;;;;;48.42;26.98;;;0.90;78.80;;;;;;6228703;23;20115;-91
2023/01/23 22:04:23;;;;;;;47.50;26.30;;;0.80;90.70;;;;;;6249105;23;20028;-90
2023/01/23 22:07:11;;;;;;;49.28;25.67;;;0.90;92.60;;;;;;6224640;23;20024;-88
2023/01/23 22:10:01;;;;;;;51.33;26.92;;;0.90;97.20;;;;;;6227029;23;20031;-90
2023/01/23 22:12:48;;;;;;;57.92;29.42;;;0.90;96.70;;;;;;6225278;23;20030;-91
2023/01/23 22:15:37;;;;;;;52.90;27.98;;;0.90;97.10;;;;;;6227516;23;20055;-90
2023/01/23 22:18:30;;;;;;;51.35;27.55;;;0.90;99.90;;;;;;6227505;23;20343;-91
2023/01/23 22:21:21;;;;;;;50.42;28.55;;;0.90;99.90;;;;;;6227028;23;20025;-91
2023/01/23 22:24:09;;;;;;;49.33;27.40;;;0.90;99.90;;;;;;6229435;23;20430;-92
2023/01/23 22:26:58;;;;;;;47.55;26.23;;;0.90;99.90;;;;;;6226395;23;20020;-92
2023/01/23 22:29:46;;;;;;;54.47;27.20;;;0.90;99.90;;;;;;6249526;23;20099;-92
2023/01/23 22:32:34;;;;;;;52.03;28.25;;;0.90;99.90;;;;;;6231521;23;20024;-92
2023/01/23 22:35:21;;;;;;;51.03;27.52;;;0.90;99.90;;;;;;6231026;23;20024;-91
2023/01/23 22:38:13;;;;;;;53.63;29.10;;;0.90;99.90;;;;;;6250344;23;20111;-92
2023/01/23 22:41:50;;;;;;;36.75;19.55;;;0.90;99.90;;;;;;6247831;23;20036;-91
2023/01/23 22:44:36;;;;;;;49.03;27.05;;;0.90;99.90;;;;;;6247168;23;20012;-91
2023/01/23 22:47:45;;;;;;;47.80;25.52;;;0.90;99.90;;;;;;6226079;23;20020;-92
2023/01/23 22:50:31;;;;;;;51.35;27.40;;;0.90;99.90;;;;;;6248526;23;20291;-89
2023/01/23 22:53:22;;;;;;;56.17;28.77;;;0.90;99.90;;;;;;6226899;23;20024;-91
2023/01/23 22:56:09;;;;;;;53.63;26.45;;;0.90;99.90;;;;;;6246722;23;20145;-90
2023/01/23 22:58:57;;;;;;;48.25;28.10;;;0.90;99.90;;;;;;6228212;23;20019;-91
2023/01/23 23:01:44;;;;;;;47.28;26.27;;;0.90;99.90;;;;;;6247387;23;20028;-90
2023/01/23 23:04:32;;;;;;;50.90;28.02;;;0.90;99.90;;;;;;6248756;23;20107;-91
2023/01/23 23:07:19;;;;;;;48.65;27.15;;;0.90;99.90;;;;;;6246375;23;20017;-90
2023/01/23 23:10:10;;;;;;;49.65;27.40;;;0.90;99.90;;;;;;6225944;23;20024;-90
2023/01/23 23:12:58;;;;;;;49.83;27.02;;;0.90;99.90;;;;;;6250596;23;20105;-91
2023/01/23 23:15:48;;;;;;;45.50;25.52;;;0.90;99.90;;;;;;6225703;23;20024;-91
2023/01/23 23:18:36;;;;;;;49.92;25.85;;;0.90;99.90;;;;;;6246803;23;20028;-91
2023/01/23 23:21:34;;;;;;;47.67;26.92;;;0.90;99.90;;;;;;6248432;23;20028;-89
2023/01/23 23:24:22;;;;;;;51.30;26.63;;;0.90;99.90;;;;;;6228194;23;20035;-89
2023/01/23 23:27:09;;;;;;;51.25;27.13;;;0.90;99.90;;;;;;6249100;23;20352;-91
2023/01/23 23:30:00;;;;;;;51.33;26.23;;;0.90;99.90;;;;;;6227353;23;20024;-90
2023/01/23 23:32:47;;;;;;;44.75;25.85;;;0.90;99.90;;;;;;6226531;23;20035;-92
2023/01/23 23:35:35;;;;;;;43.88;23.83;;;0.90;99.90;;;;;;6247060;23;20024;-90
2023/01/23 23:38:22;;;;;;;43.72;24.10;;;0.90;99.90;;;;;;6248120;23;20031;-91
2023/01/23 23:41:14;;;;;;;43.03;24.33;;;0.90;99.90;;;;;;6224771;23;20036;-91
2023/01/23 23:44:02;;;;;;;44.55;24.90;;;0.90;99.90;;;;;;6246346;23;20118;-90
2023/01/23 23:46:50;;;;;;;46.53;25.80;;;0.90;99.90;;;;;;6246995;23;20107;-90
2023/01/23 23:49:38;;;;;;;44.75;25.10;;;0.90;99.90;;;;;;6224883;23;20111;-89
2023/01/23 23:52:25;;;;;;;48.10;24.98;;;0.90;99.90;;;;;;6226901;23;20028;-90
2023/01/23 23:55:13;;;;;;;44.50;25.20;;;0.90;99.90;;;;;;6249741;23;20020;-91
2023/01/23 23:58:00;;;;;;;43.70;24.05;;;0.90;99.90;;;;;;6247325;23;20086;-88
